sensor_id;sensor_type;location;lat;lon;timestamp;temperature;humidity
8707;DHT22;4390;49.302;9.306;2023-02-12T00:00:00;5.50;92.80
8707;DHT22;4390;49.302;9.306;2023-02-12T00:02:40;5.50;92.50
8707;DHT22;4390;49.302;9.306;2023-02-12T00:05:07;5.20;93.00
8707;DHT22;4390;49.302;9.306;2023-02-12T00:07:34;5.30;93.10
8707;DHT22;4390;49.302;9.306;2023-02-12T00:10:00;5.30;93.00
8707;DHT22;4390;49.302;9.306;2023-02-12T00:12:27;5.20;93.20
8707;DHT22;4390;49.302;9.306;2023-02-12T00:14:54;5.40;93.00
8707;DHT22;4390;49.302;9.306;2023-02-12T00:17:20;5.30;93.00
8707;DHT22;4390;49.302;9.306;2023-02-12T00:19:47;5.10;93.40
8707;DHT22;4390;49.302;9.306;2023-02-12T00:22:14;5.20;93.40
8707;DHT22;4390;49.302;9.306;2023-02-12T00:24:41;5.40;93.00
8707;DHT22;4390;49.302;9.306;2023-02-12T00:27:07;5.20;93.20
8707;DHT22;4390;49.302;9.306;2023-02-12T00:29:35;5.20;93.30
8707;DHT22;4390;49.302;9.306;2023-02-12T00:32:04;5.10;93.20
8707;DHT22;4390;49.302;9.306;2023-02-12T00:34:31;5.10;93.50
8707;DHT22;4390;49.302;9.306;2023-02-12T00:36:57;5.00;93.50
8707;DHT22;4390;49.302;9.306;2023-02-12T00:39:25;4.90;93.80
8707;DHT22;4390;49.302;9.306;2023-02-12T00:41:52;5.00;93.80
8707;DHT22;4390;49.302;9.306;2023-02-12T00:44:19;5.10;93.70
8707;DHT22;4390;49.302;9.306;2023-02-12T00:46:45;5.10;93.50
8707;DHT22;4390;49.302;9.306;2023-02-12T00:49:14;5.10;93.40
8707;DHT22;4390;49.302;9.306;2023-02-12T00:51:41;5.20;93.40
8707;DHT22;4390;49.302;9.306;2023-02-12T00:54:09;5.40;93.00
8707;DHT22;4390;49.302;9.306;2023-02-12T00:56:36;5.50;92.70
8707;DHT22;4390;49.302;9.306;2023-02-12T00:59:02;5.40;92.50
8707;DHT22;4390;49.302;9.306;2023-02-12T01:01:29;5.50;92.70
8707;DHT22;4390;49.302;9.306;2023-02-12T01:03:56;5.20;93.10
8707;DHT22;4390;49.302;9.306;2023-02-12T01:06:24;5.10;93.50
8707;DHT22;4390;49.302;9.306;2023-02-12T01:08:51;5.10;93.50
8707;DHT22;4390;49.302;9.306;2023-02-12T01:11:19;5.20;93.30
8707;DHT22;4390;49.302;9.306;2023-02-12T01:13:45;5.10;93.50
8707;DHT22;4390;49.302;9.306;2023-02-12T01:16:20;5.10;93.60
8707;DHT22;4390;49.302;9.306;2023-02-12T01:18:49;5.20;93.70
8707;DHT22;4390;49.302;9.306;2023-02-12T01:21:20;5.10;93.50
8707;DHT22;4390;49.302;9.306;2023-02-12T01:23:49;5.20;93.40
8707;DHT22;4390;49.302;9.306;2023-02-12T01:26:17;5.00;93.80
8707;DHT22;4390;49.302;9.306;2023-02-12T01:28:48;4.90;94.10
8707;DHT22;4390;49.302;9.306;2023-02-12T01:31:20;4.90;94.30
8707;DHT22;4390;49.302;9.306;2023-02-12T01:38:01;5.10;94.10
8707;DHT22;4390;49.302;9.306;2023-02-12T01:40:28;5.00;93.80
8707;DHT22;4390;49.302;9.306;2023-02-12T01:47:04;5.00;94.00
8707;DHT22;4390;49.302;9.306;2023-02-12T01:49:38;5.20;93.80
8707;DHT22;4390;49.302;9.306;2023-02-12T01:52:27;5.30;93.40
8707;DHT22;4390;49.302;9.306;2023-02-12T01:54:58;5.20;93.30
8707;DHT22;4390;49.302;9.306;2023-02-12T01:57:27;5.20;93.30
8707;DHT22;4390;49.302;9.306;2023-02-12T01:59:57;4.80;94.10
8707;DHT22;4390;49.302;9.306;2023-02-12T02:02:26;4.70;94.70
8707;DHT22;4390;49.302;9.306;2023-02-12T02:04:58;4.70;95.10
8707;DHT22;4390;49.302;9.306;2023-02-12T02:07:27;4.70;94.80
8707;DHT22;4390;49.302;9.306;2023-02-12T02:09:56;4.80;94.70
8707;DHT22;4390;49.302;9.306;2023-02-12T02:12:27;5.00;94.60
8707;DHT22;4390;49.302;9.306;2023-02-12T02:15:12;5.10;94.00
8707;DHT22;4390;49.302;9.306;2023-02-12T02:17:54;4.80;94.30
8707;DHT22;4390;49.302;9.306;2023-02-12T02:20:41;4.70;94.60
8707;DHT22;4390;49.302;9.306;2023-02-12T02:23:38;4.70;95.00
8707;DHT22;4390;49.302;9.306;2023-02-12T02:34:35;5.20;94.00
8707;DHT22;4390;49.302;9.306;2023-02-12T02:37:25;5.20;93.50
8707;DHT22;4390;49.302;9.306;2023-02-12T02:39:56;5.00;93.80
8707;DHT22;4390;49.302;9.306;2023-02-12T02:42:25;5.00;94.10
8707;DHT22;4390;49.302;9.306;2023-02-12T02:44:56;4.90;94.20
8707;DHT22;4390;49.302;9.306;2023-02-12T02:47:36;4.70;94.90
8707;DHT22;4390;49.302;9.306;2023-02-12T02:50:08;4.60;95.20
8707;DHT22;4390;49.302;9.306;2023-02-12T02:52:55;4.80;95.30
8707;DHT22;4390;49.302;9.306;2023-02-12T02:55:25;4.90;94.90
8707;DHT22;4390;49.302;9.306;2023-02-12T02:58:06;4.80;94.80
8707;DHT22;4390;49.302;9.306;2023-02-12T03:00:39;4.80;94.80
8707;DHT22;4390;49.302;9.306;2023-02-12T03:03:22;4.90;94.80
8707;DHT22;4390;49.302;9.306;2023-02-12T03:05:52;4.80;94.80
8707;DHT22;4390;49.302;9.306;2023-02-12T03:08:28;4.90;95.10
8707;DHT22;4390;49.302;9.306;2023-02-12T03:17:45;5.00;94.70
8707;DHT22;4390;49.302;9.306;2023-02-12T03:22:51;4.90;95.30
8707;DHT22;4390;49.302;9.306;2023-02-12T03:25:24;5.00;95.20
8707;DHT22;4390;49.302;9.306;2023-02-12T03:30:34;5.00;95.30
8707;DHT22;4390;49.302;9.306;2023-02-12T03:33:31;4.90;95.20
8707;DHT22;4390;49.302;9.306;2023-02-12T03:36:09;4.90;95.50
8707;DHT22;4390;49.302;9.306;2023-02-12T03:38:50;4.90;95.60
8707;DHT22;4390;49.302;9.306;2023-02-12T03:41:39;4.90;95.70
8707;DHT22;4390;49.302;9.306;2023-02-12T03:44:27;5.00;95.60
8707;DHT22;4390;49.302;9.306;2023-02-12T03:47:22;5.00;95.50
8707;DHT22;4390;49.302;9.306;2023-02-12T03:50:38;4.90;95.50
8707;DHT22;4390;49.302;9.306;2023-02-12T03:52:45;4.90;95.60
8707;DHT22;4390;49.302;9.306;2023-02-12T03:55:13;5.10;95.60
8707;DHT22;4390;49.302;9.306;2023-02-12T03:57:49;4.90;95.40
8707;DHT22;4390;49.302;9.306;2023-02-12T04:00:22;4.90;95.70
8707;DHT22;4390;49.302;9.306;2023-02-12T04:02:51;4.80;95.60
8707;DHT22;4390;49.302;9.306;2023-02-12T04:05:20;4.50;96.40
8707;DHT22;4390;49.302;9.306;2023-02-12T04:07:48;4.50;96.60
8707;DHT22;4390;49.302;9.306;2023-02-12T04:10:15;4.50;96.70
8707;DHT22;4390;49.302;9.306;2023-02-12T04:18:33;4.60;96.30
8707;DHT22;4390;49.302;9.306;2023-02-12T04:21:29;4.60;96.50
8707;DHT22;4390;49.302;9.306;2023-02-12T04:24:18;4.70;96.50
8707;DHT22;4390;49.302;9.306;2023-02-12T04:26:54;4.90;96.10
8707;DHT22;4390;49.302;9.306;2023-02-12T04:32:10;5.00;95.40
8707;DHT22;4390;49.302;9.306;2023-02-12T04:37:42;4.80;96.10
8707;DHT22;4390;49.302;9.306;2023-02-12T04:40:15;4.90;95.90
8707;DHT22;4390;49.302;9.306;2023-02-12T04:42:44;4.70;96.10
8707;DHT22;4390;49.302;9.306;2023-02-12T04:45:14;4.80;96.00
8707;DHT22;4390;49.302;9.306;2023-02-12T04:47:41;4.80;96.00
8707;DHT22;4390;49.302;9.306;2023-02-12T04:50:08;4.80;95.80
8707;DHT22;4390;49.302;9.306;2023-02-12T04:52:35;4.70;96.00
8707;DHT22;4390;49.302;9.306;2023-02-12T04:55:02;4.70;95.90
8707;DHT22;4390;49.302;9.306;2023-02-12T04:57:29;4.70;96.20
8707;DHT22;4390;49.302;9.306;2023-02-12T04:59:55;4.80;95.80
8707;DHT22;4390;49.302;9.306;2023-02-12T05:02:22;4.70;95.60
8707;DHT22;4390;49.302;9.306;2023-02-12T05:04:49;4.70;96.00
8707;DHT22;4390;49.302;9.306;2023-02-12T05:07:16;4.70;95.80
8707;DHT22;4390;49.302;9.306;2023-02-12T05:09:43;4.70;95.70
8707;DHT22;4390;49.302;9.306;2023-02-12T05:12:09;4.60;96.00
8707;DHT22;4390;49.302;9.306;2023-02-12T05:14:36;4.40;96.30
8707;DHT22;4390;49.302;9.306;2023-02-12T05:17:03;4.40;96.50
8707;DHT22;4390;49.302;9.306;2023-02-12T05:19:30;4.40;96.40
8707;DHT22;4390;49.302;9.306;2023-02-12T05:21:56;4.60;96.30
8707;DHT22;4390;49.302;9.306;2023-02-12T05:24:23;4.70;95.80
8707;DHT22;4390;49.302;9.306;2023-02-12T05:26:50;4.60;95.80
8707;DHT22;4390;49.302;9.306;2023-02-12T05:29:18;4.60;96.20
8707;DHT22;4390;49.302;9.306;2023-02-12T05:31:45;4.50;96.20
8707;DHT22;4390;49.302;9.306;2023-02-12T05:34:12;4.50;96.20
8707;DHT22;4390;49.302;9.306;2023-02-12T05:36:39;4.70;96.20
8707;DHT22;4390;49.302;9.306;2023-02-12T05:39:06;4.70;95.90
8707;DHT22;4390;49.302;9.306;2023-02-12T05:41:33;4.80;95.40
8707;DHT22;4390;49.302;9.306;2023-02-12T05:44:04;4.60;95.70
8707;DHT22;4390;49.302;9.306;2023-02-12T05:46:31;4.40;96.20
8707;DHT22;4390;49.302;9.306;2023-02-12T05:48:58;4.50;96.30
8707;DHT22;4390;49.302;9.306;2023-02-12T05:51:26;4.50;96.20
8707;DHT22;4390;49.302;9.306;2023-02-12T05:53:56;4.30;96.60
8707;DHT22;4390;49.302;9.306;2023-02-12T05:56:27;4.20;97.00
8707;DHT22;4390;49.302;9.306;2023-02-12T05:59:00;4.40;96.80
8707;DHT22;4390;49.302;9.306;2023-02-12T06:01:33;4.50;96.20
8707;DHT22;4390;49.302;9.306;2023-02-12T06:04:00;4.40;96.30
8707;DHT22;4390;49.302;9.306;2023-02-12T06:06:28;4.30;96.50
8707;DHT22;4390;49.302;9.306;2023-02-12T06:08:55;4.40;96.50
8707;DHT22;4390;49.302;9.306;2023-02-12T06:11:22;4.60;96.00
8707;DHT22;4390;49.302;9.306;2023-02-12T06:13:49;4.60;95.90
8707;DHT22;4390;49.302;9.306;2023-02-12T06:16:23;4.60;95.80
8707;DHT22;4390;49.302;9.306;2023-02-12T06:18:52;4.60;95.90
8707;DHT22;4390;49.302;9.306;2023-02-12T06:21:19;4.60;96.00
8707;DHT22;4390;49.302;9.306;2023-02-12T06:23:47;4.70;96.10
8707;DHT22;4390;49.302;9.306;2023-02-12T06:26:14;4.70;95.90
8707;DHT22;4390;49.302;9.306;2023-02-12T06:28:41;4.80;95.50
8707;DHT22;4390;49.302;9.306;2023-02-12T06:31:23;4.70;95.60
8707;DHT22;4390;49.302;9.306;2023-02-12T06:33:52;4.60;96.00
8707;DHT22;4390;49.302;9.306;2023-02-12T06:36:19;4.60;96.20
8707;DHT22;4390;49.302;9.306;2023-02-12T06:38:47;4.60;96.30
8707;DHT22;4390;49.302;9.306;2023-02-12T06:41:14;4.70;96.10
8707;DHT22;4390;49.302;9.306;2023-02-12T06:43:41;4.90;95.60
8707;DHT22;4390;49.302;9.306;2023-02-12T06:46:09;4.80;95.70
8707;DHT22;4390;49.302;9.306;2023-02-12T06:48:36;4.80;95.70
8707;DHT22;4390;49.302;9.306;2023-02-12T06:53:32;4.80;95.60
8707;DHT22;4390;49.302;9.306;2023-02-12T06:56:02;4.60;95.80
8707;DHT22;4390;49.302;9.306;2023-02-12T06:58:29;4.40;96.50
8707;DHT22;4390;49.302;9.306;2023-02-12T07:00:56;4.40;96.80
8707;DHT22;4390;49.302;9.306;2023-02-12T07:03:23;4.40;96.80
8707;DHT22;4390;49.302;9.306;2023-02-12T07:05:49;4.50;96.80
8707;DHT22;4390;49.302;9.306;2023-02-12T07:08:16;4.50;96.60
8707;DHT22;4390;49.302;9.306;2023-02-12T07:10:47;4.60;96.50
8707;DHT22;4390;49.302;9.306;2023-02-12T07:13:16;4.80;96.00
8707;DHT22;4390;49.302;9.306;2023-02-12T07:15:43;4.70;96.00
8707;DHT22;4390;49.302;9.306;2023-02-12T07:18:10;4.50;96.40
8707;DHT22;4390;49.302;9.306;2023-02-12T07:20:36;4.60;96.70
8707;DHT22;4390;49.302;9.306;2023-02-12T07:23:03;4.90;96.30
8707;DHT22;4390;49.302;9.306;2023-02-12T07:25:30;5.00;95.90
8707;DHT22;4390;49.302;9.306;2023-02-12T07:27:56;4.80;95.80
8707;DHT22;4390;49.302;9.306;2023-02-12T07:30:23;4.70;96.40
8707;DHT22;4390;49.302;9.306;2023-02-12T07:32:50;4.90;96.30
8707;DHT22;4390;49.302;9.306;2023-02-12T07:35:17;4.90;96.10
8707;DHT22;4390;49.302;9.306;2023-02-12T07:37:43;4.80;96.30
8707;DHT22;4390;49.302;9.306;2023-02-12T07:40:11;4.90;96.40
8707;DHT22;4390;49.302;9.306;2023-02-12T07:42:38;4.90;96.30
8707;DHT22;4390;49.302;9.306;2023-02-12T07:45:05;5.00;96.20
8707;DHT22;4390;49.302;9.306;2023-02-12T07:47:32;5.00;96.00
8707;DHT22;4390;49.302;9.306;2023-02-12T07:50:01;5.00;96.10
8707;DHT22;4390;49.302;9.306;2023-02-12T07:52:27;5.10;95.80
8707;DHT22;4390;49.302;9.306;2023-02-12T07:54:54;5.10;95.70
8707;DHT22;4390;49.302;9.306;2023-02-12T07:57:21;5.10;96.00
8707;DHT22;4390;49.302;9.306;2023-02-12T07:59:48;5.00;96.10
8707;DHT22;4390;49.302;9.306;2023-02-12T08:02:14;5.10;96.20
8707;DHT22;4390;49.302;9.306;2023-02-12T08:04:41;5.10;96.10
8707;DHT22;4390;49.302;9.306;2023-02-12T08:07:08;5.20;95.70
8707;DHT22;4390;49.302;9.306;2023-02-12T08:09:35;5.30;95.70
8707;DHT22;4390;49.302;9.306;2023-02-12T08:12:02;5.30;95.40
8707;DHT22;4390;49.302;9.306;2023-02-12T08:14:29;5.30;95.60
8707;DHT22;4390;49.302;9.306;2023-02-12T08:16:55;5.40;95.40
8707;DHT22;4390;49.302;9.306;2023-02-12T08:19:22;5.40;95.40
8707;DHT22;4390;49.302;9.306;2023-02-12T08:21:53;5.50;95.20
8707;DHT22;4390;49.302;9.306;2023-02-12T08:24:20;5.60;94.80
8707;DHT22;4390;49.302;9.306;2023-02-12T08:26:47;5.50;95.00
8707;DHT22;4390;49.302;9.306;2023-02-12T08:29:17;5.40;95.50
8707;DHT22;4390;49.302;9.306;2023-02-12T08:31:46;5.50;95.30
8707;DHT22;4390;49.302;9.306;2023-02-12T08:34:19;5.50;95.50
8707;DHT22;4390;49.302;9.306;2023-02-12T08:36:47;5.50;95.50
8707;DHT22;4390;49.302;9.306;2023-02-12T08:39:15;5.40;95.40
8707;DHT22;4390;49.302;9.306;2023-02-12T08:41:43;5.50;95.80
8707;DHT22;4390;49.302;9.306;2023-02-12T08:44:12;5.60;95.30
8707;DHT22;4390;49.302;9.306;2023-02-12T08:46:43;5.50;95.30
8707;DHT22;4390;49.302;9.306;2023-02-12T08:49:20;5.50;95.70
8707;DHT22;4390;49.302;9.306;2023-02-12T08:51:50;5.60;95.30
8707;DHT22;4390;49.302;9.306;2023-02-12T08:54:20;5.70;95.50
8707;DHT22;4390;49.302;9.306;2023-02-12T08:56:47;5.70;95.40
8707;DHT22;4390;49.302;9.306;2023-02-12T08:59:15;5.70;95.50
8707;DHT22;4390;49.302;9.306;2023-02-12T09:01:43;5.60;95.70
8707;DHT22;4390;49.302;9.306;2023-02-12T09:04:24;5.70;95.50
8707;DHT22;4390;49.302;9.306;2023-02-12T09:06:52;5.80;95.50
8707;DHT22;4390;49.302;9.306;2023-02-12T09:09:19;5.90;95.10
8707;DHT22;4390;49.302;9.306;2023-02-12T09:11:47;5.80;95.30
8707;DHT22;4390;49.302;9.306;2023-02-12T09:14:18;6.00;95.40
8707;DHT22;4390;49.302;9.306;2023-02-12T09:16:50;6.20;94.90
8707;DHT22;4390;49.302;9.306;2023-02-12T09:19:18;6.20;94.80
8707;DHT22;4390;49.302;9.306;2023-02-12T09:21:50;6.20;94.70
8707;DHT22;4390;49.302;9.306;2023-02-12T09:24:21;6.00;95.20
8707;DHT22;4390;49.302;9.306;2023-02-12T09:26:47;6.20;95.00
8707;DHT22;4390;49.302;9.306;2023-02-12T09:29:14;6.30;94.50
8707;DHT22;4390;49.302;9.306;2023-02-12T09:31:41;6.20;94.90
8707;DHT22;4390;49.302;9.306;2023-02-12T09:34:07;6.20;95.00
8707;DHT22;4390;49.302;9.306;2023-02-12T09:36:34;6.40;94.80
8707;DHT22;4390;49.302;9.306;2023-02-12T09:39:02;6.40;94.80
8707;DHT22;4390;49.302;9.306;2023-02-12T09:41:53;6.60;94.40
8707;DHT22;4390;49.302;9.306;2023-02-12T09:44:55;6.50;94.50
8707;DHT22;4390;49.302;9.306;2023-02-12T09:52:52;6.60;94.20
8707;DHT22;4390;49.302;9.306;2023-02-12T09:55:27;6.50;94.40
8707;DHT22;4390;49.302;9.306;2023-02-12T09:57:54;6.60;94.80
8707;DHT22;4390;49.302;9.306;2023-02-12T10:00:27;6.60;94.40
8707;DHT22;4390;49.302;9.306;2023-02-12T10:03:02;6.60;94.40
8707;DHT22;4390;49.302;9.306;2023-02-12T10:05:37;6.60;94.50
8707;DHT22;4390;49.302;9.306;2023-02-12T10:22:25;7.10;94.50
8707;DHT22;4390;49.302;9.306;2023-02-12T10:25:25;7.00;94.30
8707;DHT22;4390;49.302;9.306;2023-02-12T10:27:56;7.20;94.30
8707;DHT22;4390;49.302;9.306;2023-02-12T10:30:45;7.30;94.00
8707;DHT22;4390;49.302;9.306;2023-02-12T10:33:23;7.40;94.00
8707;DHT22;4390;49.302;9.306;2023-02-12T10:35:57;7.40;93.90
8707;DHT22;4390;49.302;9.306;2023-02-12T10:38:33;7.40;94.20
8707;DHT22;4390;49.302;9.306;2023-02-12T10:41:01;7.40;94.20
8707;DHT22;4390;49.302;9.306;2023-02-12T10:43:29;7.40;94.40
8707;DHT22;4390;49.302;9.306;2023-02-12T10:45:58;7.50;94.30
8707;DHT22;4390;49.302;9.306;2023-02-12T10:48:35;7.60;94.00
8707;DHT22;4390;49.302;9.306;2023-02-12T10:53:41;7.70;93.90
8707;DHT22;4390;49.302;9.306;2023-02-12T11:03:48;7.60;94.20
8707;DHT22;4390;49.302;9.306;2023-02-12T11:06:18;7.60;94.30
8707;DHT22;4390;49.302;9.306;2023-02-12T11:08:46;7.80;94.10
8707;DHT22;4390;49.302;9.306;2023-02-12T11:11:19;8.00;93.50
8707;DHT22;4390;49.302;9.306;2023-02-12T11:13:57;8.10;93.20
8707;DHT22;4390;49.302;9.306;2023-02-12T11:16:34;8.20;92.90
8707;DHT22;4390;49.302;9.306;2023-02-12T11:19:07;8.20;92.80
8707;DHT22;4390;49.302;9.306;2023-02-12T11:21:34;8.20;92.90
8707;DHT22;4390;49.302;9.306;2023-02-12T11:26:51;8.30;92.80
8707;DHT22;4390;49.302;9.306;2023-02-12T11:29:25;8.30;92.70
8707;DHT22;4390;49.302;9.306;2023-02-12T11:32:00;8.30;92.80
8707;DHT22;4390;49.302;9.306;2023-02-12T11:34:28;8.50;92.60
8707;DHT22;4390;49.302;9.306;2023-02-12T11:36:56;8.60;92.10
8707;DHT22;4390;49.302;9.306;2023-02-12T11:39:32;8.60;92.00
8707;DHT22;4390;49.302;9.306;2023-02-12T11:42:15;8.50;92.20
8707;DHT22;4390;49.302;9.306;2023-02-12T11:44:52;8.70;92.20
8707;DHT22;4390;49.302;9.306;2023-02-12T11:47:23;8.80;91.90
8707;DHT22;4390;49.302;9.306;2023-02-12T11:50:23;8.90;92.00
8707;DHT22;4390;49.302;9.306;2023-02-12T11:52:52;9.10;91.50
8707;DHT22;4390;49.302;9.306;2023-02-12T11:55:31;9.20;91.50
8707;DHT22;4390;49.302;9.306;2023-02-12T11:58:08;9.50;90.80
8707;DHT22;4390;49.302;9.306;2023-02-12T12:00:50;9.60;90.40
8707;DHT22;4390;49.302;9.306;2023-02-12T12:06:40;9.80;89.80
8707;DHT22;4390;49.302;9.306;2023-02-12T12:09:24;9.90;89.80
8707;DHT22;4390;49.302;9.306;2023-02-12T12:14:56;10.60;88.20
8707;DHT22;4390;49.302;9.306;2023-02-12T12:17:54;11.10;87.70
8707;DHT22;4390;49.302;9.306;2023-02-12T12:20:48;11.60;86.00
8707;DHT22;4390;49.302;9.306;2023-02-12T12:23:23;12.90;83.60
8707;DHT22;4390;49.302;9.306;2023-02-12T12:25:58;12.90;82.90
8707;DHT22;4390;49.302;9.306;2023-02-12T12:28:40;12.80;83.00
8707;DHT22;4390;49.302;9.306;2023-02-12T12:31:18;12.50;83.70
8707;DHT22;4390;49.302;9.306;2023-02-12T12:34:09;12.50;83.20
8707;DHT22;4390;49.302;9.306;2023-02-12T12:39:51;12.30;83.60
8707;DHT22;4390;49.302;9.306;2023-02-12T12:42:38;12.20;83.70
8707;DHT22;4390;49.302;9.306;2023-02-12T12:45:31;12.50;83.40
8707;DHT22;4390;49.302;9.306;2023-02-12T12:51:31;13.60;81.80
8707;DHT22;4390;49.302;9.306;2023-02-12T12:54:10;13.80;80.90
8707;DHT22;4390;49.302;9.306;2023-02-12T13:08:27;17.80;73.60
8707;DHT22;4390;49.302;9.306;2023-02-12T13:11:07;17.30;74.10
8707;DHT22;4390;49.302;9.306;2023-02-12T13:13:42;17.00;74.50
8707;DHT22;4390;49.302;9.306;2023-02-12T13:21:53;19.40;71.10
8707;DHT22;4390;49.302;9.306;2023-02-12T13:24:42;18.80;71.30
8707;DHT22;4390;49.302;9.306;2023-02-12T13:27:21;17.90;72.20
8707;DHT22;4390;49.302;9.306;2023-02-12T13:32:58;16.50;74.50
8707;DHT22;4390;49.302;9.306;2023-02-12T13:35:28;15.90;75.20
8707;DHT22;4390;49.302;9.306;2023-02-12T13:37:56;15.60;76.00
8707;DHT22;4390;49.302;9.306;2023-02-12T13:40:26;15.20;76.40
8707;DHT22;4390;49.302;9.306;2023-02-12T13:43:05;15.00;76.90
8707;DHT22;4390;49.302;9.306;2023-02-12T13:58:52;13.00;80.90
8707;DHT22;4390;49.302;9.306;2023-02-12T14:07:01;12.30;82.60
8707;DHT22;4390;49.302;9.306;2023-02-12T14:09:35;12.30;82.50
8707;DHT22;4390;49.302;9.306;2023-02-12T14:12:05;12.30;82.60
8707;DHT22;4390;49.302;9.306;2023-02-12T14:14:46;12.30;82.80
8707;DHT22;4390;49.302;9.306;2023-02-12T14:35:42;11.80;83.90
8707;DHT22;4390;49.302;9.306;2023-02-12T14:40:45;11.50;84.50
8707;DHT22;4390;49.302;9.306;2023-02-12T14:43:32;11.50;84.60
8707;DHT22;4390;49.302;9.306;2023-02-12T14:51:21;11.30;85.10
8707;DHT22;4390;49.302;9.306;2023-02-12T14:53:49;11.20;85.20
8707;DHT22;4390;49.302;9.306;2023-02-12T14:56:21;11.10;85.60
8707;DHT22;4390;49.302;9.306;2023-02-12T14:58:50;11.00;86.00
8707;DHT22;4390;49.302;9.306;2023-02-12T15:01:31;11.00;86.10
8707;DHT22;4390;49.302;9.306;2023-02-12T15:04:07;11.10;86.00
8707;DHT22;4390;49.302;9.306;2023-02-12T15:06:42;11.20;85.60
8707;DHT22;4390;49.302;9.306;2023-02-12T15:09:15;11.10;85.80
8707;DHT22;4390;49.302;9.306;2023-02-12T15:12:16;11.10;85.90
8707;DHT22;4390;49.302;9.306;2023-02-12T15:14:49;11.30;85.60
8707;DHT22;4390;49.302;9.306;2023-02-12T15:17:21;11.30;85.30
8707;DHT22;4390;49.302;9.306;2023-02-12T15:19:59;11.40;85.30
8707;DHT22;4390;49.302;9.306;2023-02-12T15:22:34;11.50;85.10
8707;DHT22;4390;49.302;9.306;2023-02-12T15:25:30;11.50;85.00
8707;DHT22;4390;49.302;9.306;2023-02-12T15:28:16;11.60;84.90
8707;DHT22;4390;49.302;9.306;2023-02-12T15:30:45;11.60;84.80
8707;DHT22;4390;49.302;9.306;2023-02-12T15:33:27;11.60;84.80
8707;DHT22;4390;49.302;9.306;2023-02-12T15:35:55;11.40;85.30
8707;DHT22;4390;49.302;9.306;2023-02-12T15:38:34;11.30;85.60
8707;DHT22;4390;49.302;9.306;2023-02-12T15:41:02;11.20;85.80
8707;DHT22;4390;49.302;9.306;2023-02-12T15:43:32;11.20;86.10
8707;DHT22;4390;49.302;9.306;2023-02-12T15:46:05;11.30;85.80
8707;DHT22;4390;49.302;9.306;2023-02-12T15:48:35;11.00;86.20
8707;DHT22;4390;49.302;9.306;2023-02-12T15:51:32;10.90;86.60
8707;DHT22;4390;49.302;9.306;2023-02-12T15:54:04;10.90;86.70
8707;DHT22;4390;49.302;9.306;2023-02-12T15:56:32;11.00;86.80
8707;DHT22;4390;49.302;9.306;2023-02-12T15:59:03;11.20;86.40
8707;DHT22;4390;49.302;9.306;2023-02-12T16:01:32;11.10;86.50
8707;DHT22;4390;49.302;9.306;2023-02-12T16:04:02;11.10;86.70
8707;DHT22;4390;49.302;9.306;2023-02-12T16:06:32;11.00;86.90
8707;DHT22;4390;49.302;9.306;2023-02-12T16:09:07;10.80;87.10
8707;DHT22;4390;49.302;9.306;2023-02-12T16:11:35;10.80;87.50
8707;DHT22;4390;49.302;9.306;2023-02-12T16:14:22;10.70;87.60
8707;DHT22;4390;49.302;9.306;2023-02-12T16:16:52;10.60;87.70
8707;DHT22;4390;49.302;9.306;2023-02-12T16:19:22;10.40;88.00
8707;DHT22;4390;49.302;9.306;2023-02-12T16:22:00;10.20;88.60
8707;DHT22;4390;49.302;9.306;2023-02-12T16:24:35;10.00;89.10
8707;DHT22;4390;49.302;9.306;2023-02-12T16:27:08;10.00;89.30
8707;DHT22;4390;49.302;9.306;2023-02-12T16:29:45;9.90;89.40
8707;DHT22;4390;49.302;9.306;2023-02-12T16:32:33;9.90;89.40
8707;DHT22;4390;49.302;9.306;2023-02-12T16:48:00;9.10;91.20
8707;DHT22;4390;49.302;9.306;2023-02-12T16:50:31;9.00;91.40
8707;DHT22;4390;49.302;9.306;2023-02-12T16:53:15;8.80;91.70
8707;DHT22;4390;49.302;9.306;2023-02-12T16:55:48;8.70;92.20
8707;DHT22;4390;49.302;9.306;2023-02-12T16:58:14;8.60;92.40
8707;DHT22;4390;49.302;9.306;2023-02-12T17:00:41;8.60;92.50
8707;DHT22;4390;49.302;9.306;2023-02-12T17:03:11;8.60;92.40
8707;DHT22;4390;49.302;9.306;2023-02-12T17:05:39;8.50;92.40
8707;DHT22;4390;49.302;9.306;2023-02-12T17:08:13;8.50;92.50
8707;DHT22;4390;49.302;9.306;2023-02-12T17:10:40;8.40;92.70
8707;DHT22;4390;49.302;9.306;2023-02-12T17:13:09;8.40;92.70
8707;DHT22;4390;49.302;9.306;2023-02-12T17:15:49;8.50;92.70
8707;DHT22;4390;49.302;9.306;2023-02-12T17:18:18;8.20;92.90
8707;DHT22;4390;49.302;9.306;2023-02-12T17:20:51;8.30;92.90
8707;DHT22;4390;49.302;9.306;2023-02-12T17:23:20;8.20;92.90
8707;DHT22;4390;49.302;9.306;2023-02-12T17:25:46;8.20;93.00
8707;DHT22;4390;49.302;9.306;2023-02-12T17:28:13;8.20;93.40
8707;DHT22;4390;49.302;9.306;2023-02-12T17:30:41;8.10;93.20
8707;DHT22;4390;49.302;9.306;2023-02-12T17:33:08;8.10;93.30
8707;DHT22;4390;49.302;9.306;2023-02-12T17:35:36;7.90;93.50
8707;DHT22;4390;49.302;9.306;2023-02-12T17:38:04;8.00;93.40
8707;DHT22;4390;49.302;9.306;2023-02-12T17:40:34;7.90;93.20
8707;DHT22;4390;49.302;9.306;2023-02-12T17:43:03;7.90;93.40
8707;DHT22;4390;49.302;9.306;2023-02-12T17:45:30;7.90;93.30
8707;DHT22;4390;49.302;9.306;2023-02-12T17:47:57;7.90;93.10
8707;DHT22;4390;49.302;9.306;2023-02-12T17:50:25;7.80;93.10
8707;DHT22;4390;49.302;9.306;2023-02-12T17:52:52;7.70;93.30
8707;DHT22;4390;49.302;9.306;2023-02-12T17:55:19;7.60;93.50
8707;DHT22;4390;49.302;9.306;2023-02-12T17:57:51;7.50;93.80
8707;DHT22;4390;49.302;9.306;2023-02-12T18:00:19;7.30;94.30
8707;DHT22;4390;49.302;9.306;2023-02-12T18:02:48;7.30;94.30
8707;DHT22;4390;49.302;9.306;2023-02-12T18:05:15;7.30;94.20
8707;DHT22;4390;49.302;9.306;2023-02-12T18:07:42;7.30;94.20
8707;DHT22;4390;49.302;9.306;2023-02-12T18:10:10;7.30;94.00
8707;DHT22;4390;49.302;9.306;2023-02-12T18:12:37;7.30;93.60
8707;DHT22;4390;49.302;9.306;2023-02-12T18:15:06;7.20;93.70
8707;DHT22;4390;49.302;9.306;2023-02-12T18:17:34;7.00;93.70
8707;DHT22;4390;49.302;9.306;2023-02-12T18:20:02;6.90;94.00
8707;DHT22;4390;49.302;9.306;2023-02-12T18:22:32;6.80;94.00
8707;DHT22;4390;49.302;9.306;2023-02-12T18:24:59;6.70;94.00
8707;DHT22;4390;49.302;9.306;2023-02-12T18:27:26;6.80;94.00
8707;DHT22;4390;49.302;9.306;2023-02-12T18:29:53;6.80;93.70
8707;DHT22;4390;49.302;9.306;2023-02-12T18:32:20;6.80;93.60
8707;DHT22;4390;49.302;9.306;2023-02-12T18:34:51;6.70;93.50
8707;DHT22;4390;49.302;9.306;2023-02-12T18:37:19;6.60;93.80
8707;DHT22;4390;49.302;9.306;2023-02-12T18:39:46;6.60;93.90
8707;DHT22;4390;49.302;9.306;2023-02-12T18:42:13;6.30;94.00
8707;DHT22;4390;49.302;9.306;2023-02-12T18:44:40;6.30;94.30
8707;DHT22;4390;49.302;9.306;2023-02-12T18:47:08;6.30;94.10
8707;DHT22;4390;49.302;9.306;2023-02-12T18:49:36;6.30;93.90
8707;DHT22;4390;49.302;9.306;2023-02-12T18:52:03;6.20;93.90
8707;DHT22;4390;49.302;9.306;2023-02-12T18:54:32;6.00;94.40
8707;DHT22;4390;49.302;9.306;2023-02-12T18:56:59;6.00;94.70
8707;DHT22;4390;49.302;9.306;2023-02-12T18:59:26;5.90;94.50
8707;DHT22;4390;49.302;9.306;2023-02-12T19:01:53;5.80;95.10
8707;DHT22;4390;49.302;9.306;2023-02-12T19:04:23;6.00;95.00
8707;DHT22;4390;49.302;9.306;2023-02-12T19:06:53;6.00;94.90
8707;DHT22;4390;49.302;9.306;2023-02-12T19:09:22;5.90;94.70
8707;DHT22;4390;49.302;9.306;2023-02-12T19:11:52;5.80;94.70
8707;DHT22;4390;49.302;9.306;2023-02-12T19:14:21;5.70;95.00
8707;DHT22;4390;49.302;9.306;2023-02-12T19:16:48;5.60;95.20
8707;DHT22;4390;49.302;9.306;2023-02-12T19:19:16;5.50;95.40
8707;DHT22;4390;49.302;9.306;2023-02-12T19:21:43;5.30;95.50
8707;DHT22;4390;49.302;9.306;2023-02-12T19:24:12;5.30;95.60
8707;DHT22;4390;49.302;9.306;2023-02-12T19:26:41;5.30;95.60
8707;DHT22;4390;49.302;9.306;2023-02-12T19:29:11;5.30;95.50